sensor_id;sensor_type;location;lat;lon;timestamp;P1;durP1;ratioP1;P2;durP2;ratioP2
450;SDS011;212;48.748;9.174;2022-09-03T00:02:23;1.70;;;1.50;;
450;SDS011;212;48.748;9.174;2022-09-03T00:04:54;3.10;;;2.07;;
450;SDS011;212;48.748;9.174;2022-09-03T00:07:29;1.37;;;1.33;;
450;SDS011;212;48.748;9.174;2022-09-03T00:10:02;2.47;;;1.83;;
450;SDS011;212;48.748;9.174;2022-09-03T00:12:32;2.67;;;2.33;;
450;SDS011;212;48.748;9.174;2022-09-03T00:15:06;1.77;;;1.67;;
450;SDS011;212;48.748;9.174;2022-09-03T00:17:37;1.93;;;1.40;;
450;SDS011;212;48.748;9.174;2022-09-03T00:20:07;3.20;;;1.63;;
450;SDS011;212;48.748;9.174;2022-09-03T00:22:38;1.97;;;1.90;;
450;SDS011;212;48.748;9.174;2022-09-03T00:25:10;2.50;;;1.60;;
450;SDS011;212;48.748;9.174;2022-09-03T00:27:40;1.93;;;1.50;;
450;SDS011;212;48.748;9.174;2022-09-03T00:30:12;3.37;;;1.60;;
450;SDS011;212;48.748;9.174;2022-09-03T00:32:41;1.70;;;1.60;;
450;SDS011;212;48.748;9.174;2022-09-03T00:35:12;1.93;;;1.87;;
450;SDS011;212;48.748;9.174;2022-09-03T00:37:41;2.40;;;2.00;;
450;SDS011;212;48.748;9.174;2022-09-03T00:40:10;1.83;;;1.80;;
450;SDS011;212;48.748;9.174;2022-09-03T00:42:46;2.13;;;1.97;;
450;SDS011;212;48.748;9.174;2022-09-03T00:45:24;4.60;;;1.73;;
450;SDS011;212;48.748;9.174;2022-09-03T00:48:01;1.90;;;1.50;;
450;SDS011;212;48.748;9.174;2022-09-03T00:50:38;2.20;;;2.00;;
450;SDS011;212;48.748;9.174;2022-09-03T00:53:19;2.00;;;1.70;;
450;SDS011;212;48.748;9.174;2022-09-03T00:55:55;2.10;;;1.90;;
450;SDS011;212;48.748;9.174;2022-09-03T00:58:32;2.30;;;1.63;;
450;SDS011;212;48.748;9.174;2022-09-03T01:01:13;1.50;;;1.40;;
450;SDS011;212;48.748;9.174;2022-09-03T01:03:46;4.93;;;2.00;;
450;SDS011;212;48.748;9.174;2022-09-03T01:06:23;1.87;;;1.77;;
450;SDS011;212;48.748;9.174;2022-09-03T01:09:06;2.50;;;1.70;;
450;SDS011;212;48.748;9.174;2022-09-03T01:11:43;6.17;;;2.03;;
450;SDS011;212;48.748;9.174;2022-09-03T01:14:26;2.83;;;2.07;;
450;SDS011;212;48.748;9.174;2022-09-03T01:17:04;4.53;;;1.80;;
450;SDS011;212;48.748;9.174;2022-09-03T01:19:46;3.23;;;1.87;;
450;SDS011;212;48.748;9.174;2022-09-03T01:22:34;1.93;;;1.83;;
450;SDS011;212;48.748;9.174;2022-09-03T01:25:16;4.20;;;2.20;;
450;SDS011;212;48.748;9.174;2022-09-03T01:28:15;5.00;;;2.07;;
450;SDS011;212;48.748;9.174;2022-09-03T01:30:51;2.00;;;1.90;;
450;SDS011;212;48.748;9.174;2022-09-03T01:33:36;2.97;;;1.80;;
450;SDS011;212;48.748;9.174;2022-09-03T01:36:07;1.90;;;1.80;;
450;SDS011;212;48.748;9.174;2022-09-03T01:38:42;3.37;;;1.80;;
450;SDS011;212;48.748;9.174;2022-09-03T01:41:18;2.57;;;2.20;;
450;SDS011;212;48.748;9.174;2022-09-03T01:44:13;2.30;;;2.10;;
450;SDS011;212;48.748;9.174;2022-09-03T01:46:49;2.50;;;1.43;;
450;SDS011;212;48.748;9.174;2022-09-03T01:49:29;1.77;;;1.77;;
450;SDS011;212;48.748;9.174;2022-09-03T01:52:05;2.17;;;2.00;;
450;SDS011;212;48.748;9.174;2022-09-03T01:54:44;2.13;;;1.83;;
450;SDS011;212;48.748;9.174;2022-09-03T01:57:25;3.23;;;1.60;;
450;SDS011;212;48.748;9.174;2022-09-03T02:00:04;1.87;;;1.77;;
450;SDS011;212;48.748;9.174;2022-09-03T02:02:34;1.73;;;1.63;;
450;SDS011;212;48.748;9.174;2022-09-03T02:05:03;1.60;;;1.50;;
450;SDS011;212;48.748;9.174;2022-09-03T02:07:33;1.70;;;1.60;;
450;SDS011;212;48.748;9.174;2022-09-03T02:10:04;1.73;;;1.60;;
450;SDS011;212;48.748;9.174;2022-09-03T02:12:33;1.93;;;1.50;;
450;SDS011;212;48.748;9.174;2022-09-03T02:15:05;3.23;;;1.90;;
450;SDS011;212;48.748;9.174;2022-09-03T02:17:36;2.40;;;2.20;;
450;SDS011;212;48.748;9.174;2022-09-03T02:20:04;2.30;;;2.10;;
450;SDS011;212;48.748;9.174;2022-09-03T02:22:35;3.30;;;2.20;;
450;SDS011;212;48.748;9.174;2022-09-03T02:25:03;2.03;;;1.90;;
450;SDS011;212;48.748;9.174;2022-09-03T02:27:30;2.43;;;2.00;;
450;SDS011;212;48.748;9.174;2022-09-03T02:29:57;2.70;;;2.50;;
450;SDS011;212;48.748;9.174;2022-09-03T02:32:26;2.27;;;2.07;;
450;SDS011;212;48.748;9.174;2022-09-03T02:34:53;2.40;;;2.20;;
450;SDS011;212;48.748;9.174;2022-09-03T02:37:19;1.77;;;1.50;;
450;SDS011;212;48.748;9.174;2022-09-03T02:39:47;1.87;;;1.77;;
450;SDS011;212;48.748;9.174;2022-09-03T02:42:15;2.13;;;1.43;;
450;SDS011;212;48.748;9.174;2022-09-03T02:44:43;3.47;;;1.90;;
450;SDS011;212;48.748;9.174;2022-09-03T02:47:13;2.43;;;2.07;;
450;SDS011;212;48.748;9.174;2022-09-03T02:49:41;2.30;;;2.10;;
450;SDS011;212;48.748;9.174;2022-09-03T02:52:08;3.83;;;2.10;;
450;SDS011;212;48.748;9.174;2022-09-03T02:54:36;2.33;;;2.13;;
450;SDS011;212;48.748;9.174;2022-09-03T02:57:04;2.50;;;2.30;;
450;SDS011;212;48.748;9.174;2022-09-03T02:59:31;3.00;;;2.67;;
450;SDS011;212;48.748;9.174;2022-09-03T03:01:58;4.00;;;2.00;;
450;SDS011;212;48.748;9.174;2022-09-03T03:04:25;2.50;;;2.03;;
450;SDS011;212;48.748;9.174;2022-09-03T03:06:53;2.63;;;2.40;;
450;SDS011;212;48.748;9.174;2022-09-03T03:09:20;1.97;;;1.90;;
450;SDS011;212;48.748;9.174;2022-09-03T03:11:47;2.47;;;2.07;;
450;SDS011;212;48.748;9.174;2022-09-03T03:14:14;2.40;;;2.20;;
450;SDS011;212;48.748;9.174;2022-09-03T03:16:41;2.57;;;2.37;;
450;SDS011;212;48.748;9.174;2022-09-03T03:19:08;3.47;;;2.33;;
450;SDS011;212;48.748;9.174;2022-09-03T03:21:34;2.23;;;2.03;;
450;SDS011;212;48.748;9.174;2022-09-03T03:24:03;2.53;;;2.33;;
450;SDS011;212;48.748;9.174;2022-09-03T03:26:29;1.97;;;1.87;;
450;SDS011;212;48.748;9.174;2022-09-03T03:28:57;2.73;;;2.23;;
450;SDS011;212;48.748;9.174;2022-09-03T03:31:25;2.67;;;2.33;;
450;SDS011;212;48.748;9.174;2022-09-03T03:33:53;2.73;;;2.23;;
450;SDS011;212;48.748;9.174;2022-09-03T03:36:21;2.53;;;2.30;;
450;SDS011;212;48.748;9.174;2022-09-03T03:38:52;3.60;;;2.37;;
450;SDS011;212;48.748;9.174;2022-09-03T03:41:21;3.00;;;2.20;;
450;SDS011;212;48.748;9.174;2022-09-03T03:43:51;2.60;;;2.40;;
450;SDS011;212;48.748;9.174;2022-09-03T03:46:19;2.70;;;2.50;;
450;SDS011;212;48.748;9.174;2022-09-03T03:48:47;2.77;;;2.60;;
450;SDS011;212;48.748;9.174;2022-09-03T03:51:14;2.47;;;2.27;;
450;SDS011;212;48.748;9.174;2022-09-03T03:53:41;2.57;;;2.47;;
450;SDS011;212;48.748;9.174;2022-09-03T03:56:09;2.87;;;2.40;;
450;SDS011;212;48.748;9.174;2022-09-03T03:58:39;2.53;;;2.37;;
450;SDS011;212;48.748;9.174;2022-09-03T04:01:08;3.20;;;2.30;;
450;SDS011;212;48.748;9.174;2022-09-03T04:03:36;2.40;;;2.20;;
450;SDS011;212;48.748;9.174;2022-09-03T04:06:03;3.00;;;2.30;;
450;SDS011;212;48.748;9.174;2022-09-03T04:08:33;2.23;;;1.80;;
450;SDS011;212;48.748;9.174;2022-09-03T04:11:01;2.77;;;2.63;;
450;SDS011;212;48.748;9.174;2022-09-03T04:13:28;1.87;;;1.77;;
450;SDS011;212;48.748;9.174;2022-09-03T04:16:00;3.03;;;1.80;;
450;SDS011;212;48.748;9.174;2022-09-03T04:18:28;2.50;;;2.30;;
450;SDS011;212;48.748;9.174;2022-09-03T04:20:58;2.97;;;2.77;;
450;SDS011;212;48.748;9.174;2022-09-03T04:23:28;2.80;;;2.30;;
450;SDS011;212;48.748;9.174;2022-09-03T04:25:55;2.90;;;2.70;;
450;SDS011;212;48.748;9.174;2022-09-03T04:28:22;3.20;;;3.00;;
450;SDS011;212;48.748;9.174;2022-09-03T04:30:49;2.90;;;2.70;;
450;SDS011;212;48.748;9.174;2022-09-03T04:33:17;2.77;;;2.57;;
450;SDS011;212;48.748;9.174;2022-09-03T04:35:44;3.37;;;3.00;;
450;SDS011;212;48.748;9.174;2022-09-03T04:38:11;3.93;;;2.80;;
450;SDS011;212;48.748;9.174;2022-09-03T04:40:37;2.60;;;2.40;;
450;SDS011;212;48.748;9.174;2022-09-03T04:43:04;3.23;;;2.53;;
450;SDS011;212;48.748;9.174;2022-09-03T04:45:30;3.83;;;2.87;;
450;SDS011;212;48.748;9.174;2022-09-03T04:47:58;3.00;;;2.80;;
450;SDS011;212;48.748;9.174;2022-09-03T04:50:27;2.97;;;2.77;;
450;SDS011;212;48.748;9.174;2022-09-03T04:52:54;3.97;;;2.90;;
450;SDS011;212;48.748;9.174;2022-09-03T04:55:25;3.27;;;3.10;;
450;SDS011;212;48.748;9.174;2022-09-03T04:57:51;2.83;;;2.67;;
450;SDS011;212;48.748;9.174;2022-09-03T05:00:18;3.40;;;3.20;;
450;SDS011;212;48.748;9.174;2022-09-03T05:02:45;2.40;;;2.20;;
450;SDS011;212;48.748;9.174;2022-09-03T05:05:13;3.53;;;3.33;;
450;SDS011;212;48.748;9.174;2022-09-03T05:07:41;3.60;;;2.50;;
450;SDS011;212;48.748;9.174;2022-09-03T05:10:09;2.80;;;2.57;;
450;SDS011;212;48.748;9.174;2022-09-03T05:12:40;3.07;;;2.87;;
450;SDS011;212;48.748;9.174;2022-09-03T05:15:07;3.10;;;2.90;;
450;SDS011;212;48.748;9.174;2022-09-03T05:17:34;2.73;;;2.53;;
450;SDS011;212;48.748;9.174;2022-09-03T05:20:02;3.90;;;3.67;;
450;SDS011;212;48.748;9.174;2022-09-03T05:22:29;2.80;;;2.60;;
450;SDS011;212;48.748;9.174;2022-09-03T05:24:58;3.67;;;3.40;;
450;SDS011;212;48.748;9.174;2022-09-03T05:27:24;3.00;;;2.80;;
450;SDS011;212;48.748;9.174;2022-09-03T05:29:51;3.70;;;3.50;;
450;SDS011;212;48.748;9.174;2022-09-03T05:32:17;4.03;;;3.10;;
450;SDS011;212;48.748;9.174;2022-09-03T05:34:44;3.77;;;3.57;;
450;SDS011;212;48.748;9.174;2022-09-03T05:37:11;2.40;;;2.20;;
450;SDS011;212;48.748;9.174;2022-09-03T05:39:38;3.47;;;3.27;;
450;SDS011;212;48.748;9.174;2022-09-03T05:42:06;4.67;;;2.47;;
450;SDS011;212;48.748;9.174;2022-09-03T05:44:32;4.23;;;3.13;;
450;SDS011;212;48.748;9.174;2022-09-03T05:47:01;3.17;;;2.97;;
450;SDS011;212;48.748;9.174;2022-09-03T05:49:27;3.30;;;2.60;;
450;SDS011;212;48.748;9.174;2022-09-03T05:51:54;4.00;;;2.97;;
450;SDS011;212;48.748;9.174;2022-09-03T05:54:21;3.07;;;2.87;;
450;SDS011;212;48.748;9.174;2022-09-03T05:56:48;3.10;;;2.90;;
450;SDS011;212;48.748;9.174;2022-09-03T05:59:16;5.93;;;3.40;;
450;SDS011;212;48.748;9.174;2022-09-03T06:01:44;3.37;;;3.10;;
450;SDS011;212;48.748;9.174;2022-09-03T06:04:11;3.33;;;3.10;;
450;SDS011;212;48.748;9.174;2022-09-03T06:06:39;3.43;;;3.23;;
450;SDS011;212;48.748;9.174;2022-09-03T06:09:08;4.87;;;3.27;;
450;SDS011;212;48.748;9.174;2022-09-03T06:11:37;2.93;;;2.73;;
450;SDS011;212;48.748;9.174;2022-09-03T06:14:06;4.00;;;3.00;;
450;SDS011;212;48.748;9.174;2022-09-03T06:16:36;3.53;;;2.70;;
450;SDS011;212;48.748;9.174;2022-09-03T06:19:04;3.53;;;3.33;;
450;SDS011;212;48.748;9.174;2022-09-03T06:21:34;3.90;;;3.70;;
450;SDS011;212;48.748;9.174;2022-09-03T06:24:03;4.40;;;3.47;;
450;SDS011;212;48.748;9.174;2022-09-03T06:26:29;4.50;;;3.23;;
450;SDS011;212;48.748;9.174;2022-09-03T06:28:56;3.63;;;3.23;;
450;SDS011;212;48.748;9.174;2022-09-03T06:31:24;4.07;;;3.33;;
450;SDS011;212;48.748;9.174;2022-09-03T06:33:52;3.27;;;3.10;;
450;SDS011;212;48.748;9.174;2022-09-03T06:36:20;5.93;;;3.27;;
450;SDS011;212;48.748;9.174;2022-09-03T06:38:50;3.50;;;3.30;;
450;SDS011;212;48.748;9.174;2022-09-03T06:41:19;3.37;;;3.17;;
450;SDS011;212;48.748;9.174;2022-09-03T06:43:49;3.83;;;3.63;;
450;SDS011;212;48.748;9.174;2022-09-03T06:46:17;3.47;;;2.93;;
450;SDS011;212;48.748;9.174;2022-09-03T06:48:45;5.30;;;3.30;;
450;SDS011;212;48.748;9.174;2022-09-03T06:51:14;5.93;;;3.30;;
450;SDS011;212;48.748;9.174;2022-09-03T06:53:42;3.63;;;3.43;;
450;SDS011;212;48.748;9.174;2022-09-03T06:56:11;4.13;;;3.17;;
450;SDS011;212;48.748;9.174;2022-09-03T06:58:40;4.00;;;3.80;;
450;SDS011;212;48.748;9.174;2022-09-03T07:01:08;4.10;;;3.90;;
450;SDS011;212;48.748;9.174;2022-09-03T07:03:37;3.70;;;3.50;;
450;SDS011;212;48.748;9.174;2022-09-03T07:06:05;3.87;;;3.67;;
450;SDS011;212;48.748;9.174;2022-09-03T07:08:34;3.83;;;3.67;;
450;SDS011;212;48.748;9.174;2022-09-03T07:11:02;5.67;;;3.33;;
450;SDS011;212;48.748;9.174;2022-09-03T07:13:33;3.80;;;3.67;;
450;SDS011;212;48.748;9.174;2022-09-03T07:16:00;5.30;;;3.73;;
450;SDS011;212;48.748;9.174;2022-09-03T07:18:28;6.10;;;3.80;;
450;SDS011;212;48.748;9.174;2022-09-03T07:20:56;4.50;;;4.20;;
450;SDS011;212;48.748;9.174;2022-09-03T07:23:24;3.77;;;3.53;;
450;SDS011;212;48.748;9.174;2022-09-03T07:25:53;4.73;;;4.47;;
450;SDS011;212;48.748;9.174;2022-09-03T07:28:20;3.83;;;3.63;;
450;SDS011;212;48.748;9.174;2022-09-03T07:30:48;3.57;;;3.37;;
450;SDS011;212;48.748;9.174;2022-09-03T07:33:15;4.53;;;3.43;;
450;SDS011;212;48.748;9.174;2022-09-03T07:35:43;3.17;;;2.97;;
450;SDS011;212;48.748;9.174;2022-09-03T07:38:09;3.20;;;3.00;;
450;SDS011;212;48.748;9.174;2022-09-03T07:40:37;3.63;;;3.43;;
450;SDS011;212;48.748;9.174;2022-09-03T07:43:05;4.00;;;3.80;;
450;SDS011;212;48.748;9.174;2022-09-03T07:45:32;4.00;;;3.80;;
450;SDS011;212;48.748;9.174;2022-09-03T07:47:58;4.40;;;4.10;;
450;SDS011;212;48.748;9.174;2022-09-03T07:50:25;3.60;;;3.40;;
450;SDS011;212;48.748;9.174;2022-09-03T07:52:54;4.80;;;4.33;;
450;SDS011;212;48.748;9.174;2022-09-03T07:55:22;3.87;;;3.40;;
450;SDS011;212;48.748;9.174;2022-09-03T07:57:53;3.70;;;3.50;;
450;SDS011;212;48.748;9.174;2022-09-03T08:00:22;4.30;;;4.00;;
450;SDS011;212;48.748;9.174;2022-09-03T08:02:50;3.97;;;3.77;;
450;SDS011;212;48.748;9.174;2022-09-03T08:05:17;3.67;;;3.47;;
450;SDS011;212;48.748;9.174;2022-09-03T08:07:44;4.00;;;3.70;;
450;SDS011;212;48.748;9.174;2022-09-03T08:10:11;4.63;;;3.87;;
450;SDS011;212;48.748;9.174;2022-09-03T08:12:38;4.60;;;4.17;;
450;SDS011;212;48.748;9.174;2022-09-03T08:15:05;3.70;;;3.50;;
450;SDS011;212;48.748;9.174;2022-09-03T08:17:34;3.97;;;3.77;;
450;SDS011;212;48.748;9.174;2022-09-03T08:20:01;5.30;;;3.67;;
450;SDS011;212;48.748;9.174;2022-09-03T08:22:28;3.87;;;3.67;;
450;SDS011;212;48.748;9.174;2022-09-03T08:24:55;3.27;;;3.07;;
450;SDS011;212;48.748;9.174;2022-09-03T08:27:22;5.40;;;4.00;;
450;SDS011;212;48.748;9.174;2022-09-03T08:29:49;3.30;;;3.20;;
450;SDS011;212;48.748;9.174;2022-09-03T08:32:16;5.23;;;4.10;;
450;SDS011;212;48.748;9.174;2022-09-03T08:34:43;3.60;;;3.40;;
450;SDS011;212;48.748;9.174;2022-09-03T08:37:10;3.47;;;3.23;;
450;SDS011;212;48.748;9.174;2022-09-03T08:39:37;4.80;;;4.50;;
450;SDS011;212;48.748;9.174;2022-09-03T08:45:02;3.00;;;2.80;;
450;SDS011;212;48.748;9.174;2022-09-03T08:47:32;8.20;;;3.67;;
450;SDS011;212;48.748;9.174;2022-09-03T08:50:06;4.80;;;4.23;;
450;SDS011;212;48.748;9.174;2022-09-03T08:52:37;3.83;;;3.13;;
450;SDS011;212;48.748;9.174;2022-09-03T08:55:15;4.93;;;3.63;;
450;SDS011;212;48.748;9.174;2022-09-03T08:57:48;3.10;;;2.90;;
450;SDS011;212;48.748;9.174;2022-09-03T09:00:18;3.60;;;3.40;;
450;SDS011;212;48.748;9.174;2022-09-03T09:02:52;5.90;;;3.77;;
450;SDS011;212;48.748;9.174;2022-09-03T09:05:36;6.57;;;3.83;;
450;SDS011;212;48.748;9.174;2022-09-03T09:08:11;3.77;;;3.57;;
450;SDS011;212;48.748;9.174;2022-09-03T09:10:43;3.33;;;3.13;;
450;SDS011;212;48.748;9.174;2022-09-03T09:13:14;3.53;;;3.33;;
450;SDS011;212;48.748;9.174;2022-09-03T09:15:50;3.77;;;3.57;;
450;SDS011;212;48.748;9.174;2022-09-03T09:18:27;4.13;;;3.80;;
450;SDS011;212;48.748;9.174;2022-09-03T09:21:08;4.77;;;4.30;;
450;SDS011;212;48.748;9.174;2022-09-03T09:23:41;4.40;;;4.10;;
450;SDS011;212;48.748;9.174;2022-09-03T09:26:12;4.10;;;3.50;;
450;SDS011;212;48.748;9.174;2022-09-03T09:28:41;4.50;;;4.20;;
450;SDS011;212;48.748;9.174;2022-09-03T09:31:11;3.83;;;3.63;;
450;SDS011;212;48.748;9.174;2022-09-03T09:33:40;3.87;;;3.10;;
450;SDS011;212;48.748;9.174;2022-09-03T09:36:10;3.67;;;3.47;;
450;SDS011;212;48.748;9.174;2022-09-03T09:38:39;3.90;;;3.70;;
450;SDS011;212;48.748;9.174;2022-09-03T09:41:09;3.60;;;3.40;;
450;SDS011;212;48.748;9.174;2022-09-03T09:43:39;4.70;;;4.40;;
450;SDS011;212;48.748;9.174;2022-09-03T09:46:07;4.40;;;4.10;;
450;SDS011;212;48.748;9.174;2022-09-03T09:48:37;8.07;;;3.27;;
450;SDS011;212;48.748;9.174;2022-09-03T09:51:12;4.13;;;3.90;;
450;SDS011;212;48.748;9.174;2022-09-03T09:53:43;4.17;;;3.93;;
450;SDS011;212;48.748;9.174;2022-09-03T09:56:18;5.47;;;5.17;;
450;SDS011;212;48.748;9.174;2022-09-03T09:58:46;5.20;;;4.90;;
450;SDS011;212;48.748;9.174;2022-09-03T10:01:13;4.40;;;4.10;;
450;SDS011;212;48.748;9.174;2022-09-03T10:03:50;5.00;;;4.70;;
450;SDS011;212;48.748;9.174;2022-09-03T10:06:21;4.47;;;3.97;;
450;SDS011;212;48.748;9.174;2022-09-03T10:09:06;5.43;;;4.70;;
450;SDS011;212;48.748;9.174;2022-09-03T10:11:36;3.70;;;3.50;;
450;SDS011;212;48.748;9.174;2022-09-03T10:14:04;4.70;;;4.40;;
450;SDS011;212;48.748;9.174;2022-09-03T10:16:36;4.60;;;4.30;;
450;SDS011;212;48.748;9.174;2022-09-03T10:19:10;6.20;;;4.80;;
450;SDS011;212;48.748;9.174;2022-09-03T10:21:44;4.60;;;4.30;;
450;SDS011;212;48.748;9.174;2022-09-03T10:24:28;4.97;;;4.67;;
450;SDS011;212;48.748;9.174;2022-09-03T10:27:03;5.53;;;5.23;;
450;SDS011;212;48.748;9.174;2022-09-03T10:29:34;4.80;;;4.50;;
450;SDS011;212;48.748;9.174;2022-09-03T10:32:07;5.27;;;4.97;;
450;SDS011;212;48.748;9.174;2022-09-03T10:34:49;5.70;;;5.40;;
450;SDS011;212;48.748;9.174;2022-09-03T10:37:28;5.00;;;4.70;;
450;SDS011;212;48.748;9.174;2022-09-03T10:40:10;4.50;;;4.20;;
450;SDS011;212;48.748;9.174;2022-09-03T10:42:46;5.00;;;4.70;;
450;SDS011;212;48.748;9.174;2022-09-03T10:45:22;5.40;;;5.10;;
450;SDS011;212;48.748;9.174;2022-09-03T10:48:03;5.83;;;5.30;;
450;SDS011;212;48.748;9.174;2022-09-03T10:50:50;5.23;;;4.93;;
450;SDS011;212;48.748;9.174;2022-09-03T10:53:24;5.37;;;5.07;;
450;SDS011;212;48.748;9.174;2022-09-03T10:56:06;5.77;;;4.60;;
450;SDS011;212;48.748;9.174;2022-09-03T10:58:44;4.93;;;4.63;;
450;SDS011;212;48.748;9.174;2022-09-03T11:01:24;5.73;;;5.37;;
450;SDS011;212;48.748;9.174;2022-09-03T11:04:01;6.00;;;5.70;;
450;SDS011;212;48.748;9.174;2022-09-03T11:06:45;6.23;;;3.80;;
450;SDS011;212;48.748;9.174;2022-09-03T11:09:17;5.03;;;4.70;;
450;SDS011;212;48.748;9.174;2022-09-03T11:11:50;5.83;;;4.53;;
450;SDS011;212;48.748;9.174;2022-09-03T11:14:22;5.40;;;5.10;;
450;SDS011;212;48.748;9.174;2022-09-03T11:16:57;5.23;;;4.93;;
450;SDS011;212;48.748;9.174;2022-09-03T11:19:31;5.30;;;5.00;;
450;SDS011;212;48.748;9.174;2022-09-03T11:22:00;4.97;;;4.67;;
450;SDS011;212;48.748;9.174;2022-09-03T11:24:31;5.47;;;5.17;;
450;SDS011;212;48.748;9.174;2022-09-03T11:27:01;4.90;;;4.60;;
450;SDS011;212;48.748;9.174;2022-09-03T11:29:38;4.53;;;4.23;;
450;SDS011;212;48.748;9.174;2022-09-03T11:32:14;4.83;;;4.50;;
450;SDS011;212;48.748;9.174;2022-09-03T11:34:44;4.70;;;4.40;;
450;SDS011;212;48.748;9.174;2022-09-03T11:37:16;5.97;;;5.67;;
450;SDS011;212;48.748;9.174;2022-09-03T11:39:53;5.30;;;5.00;;
450;SDS011;212;48.748;9.174;2022-09-03T11:42:33;4.03;;;3.83;;
450;SDS011;212;48.748;9.174;2022-09-03T11:45:11;4.67;;;4.37;;
450;SDS011;212;48.748;9.174;2022-09-03T11:47:45;5.27;;;4.97;;
450;SDS011;212;48.748;9.174;2022-09-03T11:50:16;5.80;;;5.50;;
450;SDS011;212;48.748;9.174;2022-09-03T11:52:45;5.00;;;4.70;;
450;SDS011;212;48.748;9.174;2022-09-03T11:55:24;7.07;;;5.10;;
450;SDS011;212;48.748;9.174;2022-09-03T11:57:54;4.70;;;4.43;;
450;SDS011;212;48.748;9.174;2022-09-03T12:00:21;4.60;;;4.30;;
450;SDS011;212;48.748;9.174;2022-09-03T12:02:49;5.00;;;4.70;;
450;SDS011;212;48.748;9.174;2022-09-03T12:05:20;4.77;;;4.47;;
450;SDS011;212;48.748;9.174;2022-09-03T12:07:57;6.17;;;4.70;;
450;SDS011;212;48.748;9.174;2022-09-03T12:10:45;5.50;;;5.20;;
450;SDS011;212;48.748;9.174;2022-09-03T12:13:33;5.10;;;4.80;;
450;SDS011;212;48.748;9.174;2022-09-03T12:16:14;5.93;;;5.70;;
450;SDS011;212;48.748;9.174;2022-09-03T12:19:07;6.20;;;5.90;;
450;SDS011;212;48.748;9.174;2022-09-03T12:21:42;5.27;;;4.97;;
450;SDS011;212;48.748;9.174;2022-09-03T12:24:13;5.87;;;5.57;;
450;SDS011;212;48.748;9.174;2022-09-03T12:26:42;6.13;;;5.83;;
450;SDS011;212;48.748;9.174;2022-09-03T12:29:18;4.90;;;4.60;;
450;SDS011;212;48.748;9.174;2022-09-03T12:31:48;4.03;;;3.60;;
450;SDS011;212;48.748;9.174;2022-09-03T12:34:16;4.60;;;3.77;;
450;SDS011;212;48.748;9.174;2022-09-03T12:36:44;3.70;;;3.50;;
450;SDS011;212;48.748;9.174;2022-09-03T12:39:13;3.40;;;3.20;;
450;SDS011;212;48.748;9.174;2022-09-03T12:41:56;3.13;;;2.93;;
450;SDS011;212;48.748;9.174;2022-09-03T12:44:28;3.23;;;3.00;;
450;SDS011;212;48.748;9.174;2022-09-03T12:47:00;3.30;;;3.10;;
450;SDS011;212;48.748;9.174;2022-09-03T12:49:35;3.20;;;3.00;;
450;SDS011;212;48.748;9.174;2022-09-03T12:52:05;4.07;;;2.40;;
450;SDS011;212;48.748;9.174;2022-09-03T12:54:40;3.17;;;2.40;;
450;SDS011;212;48.748;9.174;2022-09-03T12:57:13;5.43;;;2.63;;
450;SDS011;212;48.748;9.174;2022-09-03T12:59:45;3.70;;;3.50;;
450;SDS011;212;48.748;9.174;2022-09-03T13:02:15;3.57;;;3.37;;
450;SDS011;212;48.748;9.174;2022-09-03T13:04:46;2.80;;;2.60;;
450;SDS011;212;48.748;9.174;2022-09-03T13:07:19;4.00;;;2.90;;
450;SDS011;212;48.748;9.174;2022-09-03T13:09:50;4.27;;;3.30;;
450;SDS011;212;48.748;9.174;2022-09-03T13:12:22;2.87;;;2.73;;
450;SDS011;212;48.748;9.174;2022-09-03T13:14:54;2.60;;;2.43;;
450;SDS011;212;48.748;9.174;2022-09-03T13:20:23;3.77;;;3.10;;
450;SDS011;212;48.748;9.174;2022-09-03T13:23:10;3.13;;;2.97;;
450;SDS011;212;48.748;9.174;2022-09-03T13:25:50;3.30;;;3.13;;
450;SDS011;212;48.748;9.174;2022-09-03T13:28:28;6.70;;;3.10;;
450;SDS011;212;48.748;9.174;2022-09-03T13:31:07;3.77;;;2.40;;
450;SDS011;212;48.748;9.174;2022-09-03T13:33:47;2.50;;;2.40;;
450;SDS011;212;48.748;9.174;2022-09-03T13:36:18;2.97;;;1.97;;
450;SDS011;212;48.748;9.174;2022-09-03T13:38:50;3.63;;;2.10;;
450;SDS011;212;48.748;9.174;2022-09-03T13:41:26;1.90;;;1.80;;
450;SDS011;212;48.748;9.174;2022-09-03T13:44:01;1.83;;;1.77;;
450;SDS011;212;48.748;9.174;2022-09-03T13:46:34;2.53;;;2.20;;
450;SDS011;212;48.748;9.174;2022-09-03T13:49:11;4.40;;;3.43;;
450;SDS011;212;48.748;9.174;2022-09-03T13:52:10;2.13;;;1.90;;
450;SDS011;212;48.748;9.174;2022-09-03T13:54:48;2.23;;;2.00;;
450;SDS011;212;48.748;9.174;2022-09-03T13:57:22;1.70;;;1.60;;
450;SDS011;212;48.748;9.174;2022-09-03T13:59:55;3.20;;;2.27;;
450;SDS011;212;48.748;9.174;2022-09-03T14:02:27;3.00;;;2.07;;
450;SDS011;212;48.748;9.174;2022-09-03T14:05:05;2.97;;;2.77;;
450;SDS011;212;48.748;9.174;2022-09-03T14:07:41;2.53;;;1.70;;
450;SDS011;212;48.748;9.174;2022-09-03T14:10:24;1.97;;;1.63;;
450;SDS011;212;48.748;9.174;2022-09-03T14:13:05;3.20;;;2.00;;
450;SDS011;212;48.748;9.174;2022-09-03T14:15:42;2.13;;;1.87;;
450;SDS011;212;48.748;9.174;2022-09-03T14:18:14;2.57;;;1.87;;
450;SDS011;212;48.748;9.174;2022-09-03T14:20:52;2.87;;;2.20;;
450;SDS011;212;48.748;9.174;2022-09-03T14:23:25;2.17;;;1.87;;
450;SDS011;212;48.748;9.174;2022-09-03T14:25:58;3.03;;;1.63;;
450;SDS011;212;48.748;9.174;2022-09-03T14:28:28;4.00;;;2.17;;
450;SDS011;212;48.748;9.174;2022-09-03T14:31:02;2.57;;;1.80;;
450;SDS011;212;48.748;9.174;2022-09-03T14:33:38;1.47;;;1.30;;
450;SDS011;212;48.748;9.174;2022-09-03T14:36:17;3.00;;;2.00;;
450;SDS011;212;48.748;9.174;2022-09-03T14:39:02;2.40;;;1.27;;
450;SDS011;212;48.748;9.174;2022-09-03T14:41:48;1.33;;;1.33;;
450;SDS011;212;48.748;9.174;2022-09-03T14:44:33;1.30;;;1.30;;
450;SDS011;212;48.748;9.174;2022-09-03T14:47:13;2.80;;;1.50;;
450;SDS011;212;48.748;9.174;2022-09-03T14:49:53;2.20;;;1.70;;
450;SDS011;212;48.748;9.174;2022-09-03T14:52:32;2.10;;;1.80;;
450;SDS011;212;48.748;9.174;2022-09-03T14:55:20;1.53;;;1.43;;
450;SDS011;212;48.748;9.174;2022-09-03T14:58:18;2.00;;;1.73;;
450;SDS011;212;48.748;9.174;2022-09-03T15:00:54;1.83;;;1.73;;
450;SDS011;212;48.748;9.174;2022-09-03T15:06:31;2.00;;;1.40;;
450;SDS011;212;48.748;9.174;2022-09-03T15:09:15;1.67;;;1.33;;
450;SDS011;212;48.748;9.174;2022-09-03T15:11:54;2.03;;;1.80;;
450;SDS011;212;48.748;9.174;2022-09-03T15:14:25;1.70;;;1.60;;
450;SDS011;212;48.748;9.174;2022-09-03T15:16:57;1.33;;;1.33;;
450;SDS011;212;48.748;9.174;2022-09-03T15:19:33;2.17;;;2.03;;
450;SDS011;212;48.748;9.174;2022-09-03T15:22:12;1.90;;;1.60;;
450;SDS011;212;48.748;9.174;2022-09-03T15:24:49;3.33;;;1.90;;
450;SDS011;212;48.748;9.174;2022-09-03T15:27:25;1.70;;;1.67;;
450;SDS011;212;48.748;9.174;2022-09-03T15:30:07;2.20;;;2.00;;
450;SDS011;212;48.748;9.174;2022-09-03T15:32:42;2.40;;;1.47;;
450;SDS011;212;48.748;9.174;2022-09-03T15:38:36;2.47;;;1.80;;
450;SDS011;212;48.748;9.174;2022-09-03T15:41:09;1.53;;;1.47;;
450;SDS011;212;48.748;9.174;2022-09-03T15:43:47;1.20;;;1.10;;
450;SDS011;212;48.748;9.174;2022-09-03T15:46:28;1.40;;;1.30;;
450;SDS011;212;48.748;9.174;2022-09-03T15:49:04;1.50;;;1.40;;
450;SDS011;212;48.748;9.174;2022-09-03T15:51:45;1.70;;;1.60;;
450;SDS011;212;48.748;9.174;2022-09-03T15:54:22;2.70;;;1.80;;
450;SDS011;212;48.748;9.174;2022-09-03T15:57:01;2.27;;;2.07;;
450;SDS011;212;48.748;9.174;2022-09-03T15:59:34;2.43;;;2.23;;
450;SDS011;212;48.748;9.174;2022-09-03T16:02:06;2.20;;;2.00;;
450;SDS011;212;48.748;9.174;2022-09-03T16:04:41;2.50;;;1.93;;
450;SDS011;212;48.748;9.174;2022-09-03T16:07:20;2.27;;;2.07;;
450;SDS011;212;48.748;9.174;2022-09-03T16:09:55;3.73;;;3.00;;
450;SDS011;212;48.748;9.174;2022-09-03T16:12:32;2.43;;;1.97;;
450;SDS011;212;48.748;9.174;2022-09-03T16:15:02;2.17;;;2.00;;
450;SDS011;212;48.748;9.174;2022-09-03T16:17:35;3.13;;;2.50;;
450;SDS011;212;48.748;9.174;2022-09-03T16:20:05;2.43;;;2.23;;
450;SDS011;212;48.748;9.174;2022-09-03T16:22:42;3.33;;;2.57;;
450;SDS011;212;48.748;9.174;2022-09-03T16:25:14;4.93;;;2.80;;
450;SDS011;212;48.748;9.174;2022-09-03T16:27:50;2.50;;;2.00;;
450;SDS011;212;48.748;9.174;2022-09-03T16:30:26;2.60;;;2.40;;